createdAt,value
2018-03-14T00:01:02.438Z,11.56
2018-03-14T00:03:30.922Z,11.54
2018-03-14T00:05:59.395Z,11.60
2018-03-14T00:08:27.917Z,11.57
2018-03-14T00:10:56.397Z,11.60
2018-03-14T00:13:24.926Z,11.33
2018-03-14T00:15:53.434Z,11.49
2018-03-14T00:18:21.915Z,11.54
2018-03-14T00:20:50.430Z,11.52
2018-03-14T00:23:18.922Z,11.55
2018-03-14T00:25:47.469Z,11.44
2018-03-14T00:28:15.958Z,11.43
2018-03-14T00:30:44.435Z,11.43
2018-03-14T00:33:12.961Z,11.40
2018-03-14T00:35:41.422Z,11.49
2018-03-14T00:38:09.897Z,11.51
2018-03-14T00:40:38.449Z,11.48
2018-03-14T00:43:06.936Z,11.55
2018-03-14T00:45:35.406Z,11.57
2018-03-14T00:48:03.918Z,11.59
2018-03-14T00:50:32.412Z,11.62
2018-03-14T00:53:00.954Z,11.62
2018-03-14T00:55:29.497Z,11.67
2018-03-14T00:57:58.010Z,11.68
2018-03-14T01:00:26.502Z,11.78
2018-03-14T01:02:55.013Z,11.68
2018-03-14T01:05:23.518Z,11.65
2018-03-14T01:07:52.025Z,11.64
2018-03-14T01:10:20.492Z,11.72
2018-03-14T01:12:49.025Z,11.60
2018-03-14T01:15:17.535Z,11.55
2018-03-14T01:17:46.050Z,11.56
2018-03-14T01:20:14.574Z,11.50
2018-03-14T01:22:43.050Z,11.57
2018-03-14T01:25:11.570Z,11.33
2018-03-14T01:27:40.054Z,11.46
2018-03-14T01:30:08.525Z,11.40
2018-03-14T01:32:37.086Z,11.35
2018-03-14T01:35:05.592Z,11.30
2018-03-14T01:37:34.110Z,11.36
2018-03-14T01:40:02.634Z,11.46
2018-03-14T01:42:31.134Z,11.30
2018-03-14T01:44:59.649Z,11.38
2018-03-14T01:47:28.130Z,11.32
2018-03-14T01:49:56.650Z,11.22
2018-03-14T01:52:25.157Z,11.13
2018-03-14T01:54:53.654Z,11.02
2018-03-14T01:57:22.166Z,11.10
2018-03-14T01:59:50.649Z,11.19
2018-03-14T02:02:19.143Z,11.18
2018-03-14T02:04:47.661Z,11.19
2018-03-14T02:07:16.162Z,11.13
2018-03-14T02:09:44.660Z,11.07
2018-03-14T02:12:13.177Z,11.06
2018-03-14T02:14:41.676Z,11.06
2018-03-14T02:17:10.197Z,11.02
2018-03-14T02:19:38.674Z,11.10
2018-03-14T02:22:07.174Z,11.08
2018-03-14T02:24:35.702Z,10.89
2018-03-14T02:27:04.202Z,10.97
2018-03-14T02:29:32.677Z,10.87
2018-03-14T02:32:01.203Z,10.94
2018-03-14T02:34:29.674Z,10.95
2018-03-14T02:37:04.906Z,11.03
2018-03-14T02:39:33.404Z,10.98
2018-03-14T02:42:01.930Z,11.10
2018-03-14T02:44:30.393Z,10.99
2018-03-14T02:46:58.938Z,11.07
2018-03-14T02:49:27.433Z,11.16
2018-03-14T02:51:55.922Z,11.20
2018-03-14T02:54:24.426Z,11.24
2018-03-14T02:56:52.881Z,11.14
2018-03-14T02:59:21.370Z,11.23
2018-03-14T03:01:49.817Z,11.26
2018-03-14T03:04:18.270Z,11.29
2018-03-14T03:06:50.679Z,11.30
2018-03-14T03:09:19.178Z,11.32
2018-03-14T03:11:47.686Z,11.26
2018-03-14T03:14:16.140Z,11.26
2018-03-14T03:16:44.634Z,11.25
2018-03-14T03:19:13.093Z,11.15
2018-03-14T03:21:41.589Z,11.20
2018-03-14T03:24:10.062Z,11.18
2018-03-14T03:26:38.562Z,11.14
2018-03-14T03:29:07.005Z,11.28
2018-03-14T03:31:35.494Z,11.33
2018-03-14T03:34:03.949Z,11.36
2018-03-14T03:36:32.437Z,11.44
2018-03-14T03:39:00.952Z,11.42
2018-03-14T03:41:29.437Z,11.43
2018-03-14T03:43:57.895Z,11.50
2018-03-14T03:46:26.378Z,11.51
2018-03-14T03:48:54.835Z,11.59
2018-03-14T03:51:23.352Z,11.59
2018-03-14T03:53:51.822Z,11.67
2018-03-14T03:56:20.329Z,11.52
2018-03-14T03:58:48.822Z,11.63
2018-03-14T04:01:17.269Z,11.75
2018-03-14T04:03:45.719Z,11.86
2018-03-14T04:06:14.218Z,11.81
2018-03-14T04:08:42.702Z,11.93
2018-03-14T04:11:11.158Z,11.79
2018-03-14T04:13:39.651Z,11.73
2018-03-14T04:16:08.142Z,11.79
2018-03-14T04:18:36.680Z,11.83
2018-03-14T04:21:05.171Z,11.80
2018-03-14T04:23:33.622Z,11.82
2018-03-14T04:26:02.130Z,11.79
2018-03-14T04:28:30.618Z,11.87
2018-03-14T04:30:59.134Z,11.86
2018-03-14T04:33:27.589Z,11.95
2018-03-14T04:35:56.077Z,11.97
2018-03-14T04:38:24.566Z,11.93
2018-03-14T04:40:53.057Z,11.77
2018-03-14T04:43:21.534Z,11.73
2018-03-14T04:45:50.018Z,11.85
2018-03-14T04:48:18.506Z,11.94
2018-03-14T04:50:46.966Z,11.82
2018-03-14T04:53:15.449Z,11.76
2018-03-14T04:55:43.935Z,11.72
2018-03-14T04:58:12.418Z,11.85
2018-03-14T05:00:40.865Z,12.02
2018-03-14T05:03:09.354Z,11.90
2018-03-14T05:05:37.816Z,12.02
2018-03-14T05:08:06.314Z,12.05
2018-03-14T05:10:34.762Z,12.05
2018-03-14T05:13:03.258Z,12.08
2018-03-14T05:15:31.747Z,12.20
2018-03-14T05:18:00.218Z,12.18
2018-03-14T05:20:28.702Z,12.28
2018-03-14T05:22:57.146Z,12.45
2018-03-14T05:25:25.647Z,12.47
2018-03-14T05:27:54.099Z,12.67
2018-03-14T05:30:22.586Z,12.75
2018-03-14T05:32:51.038Z,12.89
2018-03-14T05:35:19.545Z,12.89
2018-03-14T05:37:47.994Z,12.90
2018-03-14T05:40:16.489Z,13.02
2018-03-14T05:42:44.969Z,13.16
2018-03-14T05:45:13.475Z,13.26
2018-03-14T05:47:41.981Z,13.35
2018-03-14T05:50:10.471Z,13.46
2018-03-14T05:52:39.014Z,13.55
2018-03-14T05:55:07.461Z,13.68
2018-03-14T05:57:35.926Z,13.65
2018-03-14T06:00:04.490Z,13.49
2018-03-14T06:02:32.990Z,13.69
2018-03-14T06:05:01.544Z,13.77
2018-03-14T06:07:30.050Z,13.91
2018-03-14T06:09:58.542Z,13.75
2018-03-14T06:12:27.007Z,13.89
2018-03-14T06:14:55.498Z,14.05
2018-03-14T06:17:23.967Z,13.97
2018-03-14T06:19:52.462Z,14.17
2018-03-14T06:22:20.965Z,14.12
2018-03-14T06:24:49.425Z,14.25
2018-03-14T06:27:17.937Z,14.39
2018-03-14T06:29:46.388Z,14.44
2018-03-14T06:32:14.843Z,14.60
2018-03-14T06:34:43.350Z,14.69
2018-03-14T06:37:11.855Z,14.64
2018-03-14T06:39:40.355Z,14.49
2018-03-14T06:42:08.877Z,14.69
2018-03-14T06:44:37.499Z,14.78
2018-03-14T06:47:05.988Z,14.77
2018-03-14T06:49:34.492Z,14.74
2018-03-14T06:52:02.977Z,14.79
2018-03-14T06:54:31.470Z,14.97
2018-03-14T06:56:59.941Z,14.94
2018-03-14T06:59:40.001Z,15.11
2018-03-14T07:02:20.066Z,15.02
2018-03-14T07:05:00.863Z,15.01
2018-03-14T07:07:29.326Z,15.08
2018-03-14T07:09:57.847Z,15.20
2018-03-14T07:12:26.358Z,15.43
2018-03-14T07:14:54.838Z,15.40
2018-03-14T07:17:23.412Z,15.70
2018-03-14T07:19:51.877Z,15.81
2018-03-14T07:22:20.417Z,15.93
2018-03-14T07:24:48.878Z,15.92
2018-03-14T07:27:17.430Z,15.93
2018-03-14T07:29:45.901Z,15.82
2018-03-14T07:32:14.415Z,15.82
2018-03-14T07:34:42.901Z,15.73
2018-03-14T07:37:11.394Z,15.74
2018-03-14T07:39:39.894Z,15.85
2018-03-14T07:42:08.394Z,15.70
2018-03-14T07:44:36.896Z,15.73
2018-03-14T07:47:05.378Z,15.73
2018-03-14T07:49:33.887Z,15.51
2018-03-14T07:52:02.382Z,15.46
2018-03-14T07:54:30.791Z,15.40
2018-03-14T07:56:59.225Z,15.48
2018-03-14T07:59:27.627Z,15.56
2018-03-14T08:01:56.064Z,15.73
2018-03-14T08:04:24.492Z,15.73
2018-03-14T08:06:52.884Z,15.67
2018-03-14T08:09:21.312Z,15.73
2018-03-14T08:11:49.763Z,15.74
2018-03-14T08:14:18.192Z,15.57
2018-03-14T08:16:46.625Z,15.72
2018-03-14T08:19:15.054Z,15.90
2018-03-14T08:21:43.582Z,16.00
2018-03-14T08:24:11.977Z,16.17
2018-03-14T08:26:40.413Z,16.21
2018-03-14T08:29:08.836Z,16.16
2018-03-14T08:31:37.245Z,16.07
2018-03-14T08:34:06.022Z,16.08
2018-03-14T08:36:34.469Z,15.95
2018-03-14T08:39:03.029Z,16.07
2018-03-14T08:41:31.575Z,16.19
2018-03-14T08:44:01.013Z,16.18
2018-03-14T08:46:29.506Z,16.32
2018-03-14T08:48:58.026Z,16.41
2018-03-14T08:51:26.486Z,16.39
2018-03-14T08:53:54.974Z,16.36
2018-03-14T08:56:23.486Z,16.40
2018-03-14T08:58:51.985Z,16.48
2018-03-14T09:01:20.447Z,16.74
2018-03-14T09:03:48.983Z,16.84
2018-03-14T09:06:17.449Z,17.21
2018-03-14T09:08:46.075Z,17.37
2018-03-14T09:11:14.698Z,17.66
2018-03-14T09:13:43.282Z,18.04
2018-03-14T09:16:11.814Z,18.01
2018-03-14T09:18:41.299Z,18.34
2018-03-14T09:21:11.151Z,18.23
2018-03-14T09:23:39.686Z,18.10
2018-03-14T09:26:08.238Z,18.24
2018-03-14T09:28:36.780Z,18.10
2018-03-14T09:31:05.443Z,18.24
2018-03-14T09:33:33.911Z,18.30
2018-03-14T09:36:02.403Z,18.17
2018-03-14T09:38:30.871Z,18.43
2018-03-14T09:40:59.377Z,18.39
2018-03-14T09:43:27.842Z,18.42
2018-03-14T09:45:56.371Z,18.51
2018-03-14T09:48:24.829Z,18.35
2018-03-14T09:50:53.303Z,18.38
2018-03-14T09:53:21.815Z,18.32
2018-03-14T09:55:50.311Z,18.07
2018-03-14T09:58:18.766Z,18.16
2018-03-14T10:00:47.311Z,18.13
2018-03-14T10:03:15.778Z,18.19
2018-03-14T10:05:44.293Z,18.09
2018-03-14T10:08:12.763Z,18.16
2018-03-14T10:10:41.258Z,17.92
2018-03-14T10:13:09.710Z,17.93
2018-03-14T10:15:38.210Z,18.04
2018-03-14T10:18:06.770Z,18.03
2018-03-14T10:20:35.226Z,17.82
2018-03-14T10:23:03.744Z,18.09
2018-03-14T10:25:32.316Z,18.11
2018-03-14T10:28:00.782Z,18.23
2018-03-14T10:30:29.244Z,18.22
2018-03-14T10:32:57.774Z,18.43
2018-03-14T10:35:26.279Z,18.55
2018-03-14T10:37:54.769Z,18.37
2018-03-14T10:40:23.240Z,18.51
2018-03-14T10:42:51.756Z,18.43
2018-03-14T10:45:20.214Z,18.59
2018-03-14T10:47:48.702Z,18.56
2018-03-14T10:50:17.172Z,18.40
2018-03-14T10:52:45.682Z,18.44
2018-03-14T10:55:14.154Z,18.32
2018-03-14T10:57:42.625Z,18.18
2018-03-14T11:00:16.762Z,18.21
2018-03-14T11:02:50.693Z,18.20
2018-03-14T11:05:19.216Z,18.13
2018-03-14T11:07:47.739Z,18.09
2018-03-14T11:10:16.262Z,18.16
2018-03-14T11:12:44.757Z,17.99
2018-03-14T11:15:13.223Z,18.20
2018-03-14T11:17:41.718Z,17.98
2018-03-14T11:20:10.214Z,18.15
2018-03-14T11:22:38.667Z,18.11
2018-03-14T11:25:07.126Z,18.22
2018-03-14T11:27:35.689Z,18.16
2018-03-14T11:30:04.302Z,17.95
2018-03-14T11:32:32.802Z,18.02
2018-03-14T11:35:01.262Z,18.12
2018-03-14T11:37:29.793Z,17.61
2018-03-14T11:59:05.495Z,18.01
2018-03-14T12:01:34.014Z,17.99
2018-03-14T12:04:02.543Z,17.86
2018-03-14T12:06:31.131Z,17.82
2018-03-14T12:08:59.642Z,17.87
2018-03-14T12:11:28.097Z,17.84
2018-03-14T12:13:56.571Z,17.74
2018-03-14T12:16:25.095Z,17.89
2018-03-14T12:18:53.752Z,18.03
2018-03-14T12:21:22.251Z,17.99
2018-03-14T12:23:50.718Z,18.03
2018-03-14T12:26:19.348Z,17.83
2018-03-14T12:28:47.813Z,17.86
2018-03-14T12:31:16.314Z,17.77
2018-03-14T12:33:44.862Z,17.58
2018-03-14T12:36:13.366Z,17.59
2018-03-14T12:38:41.822Z,17.75
2018-03-14T12:41:10.394Z,17.71
2018-03-14T12:43:38.853Z,17.85
2018-03-14T12:46:07.321Z,17.79
2018-03-14T12:48:35.857Z,17.80
2018-03-14T12:51:04.383Z,17.85
2018-03-14T12:53:32.881Z,17.70
2018-03-14T12:56:01.370Z,17.82
2018-03-14T12:58:29.917Z,17.50
2018-03-14T13:00:58.438Z,17.52
2018-03-14T13:03:26.973Z,17.48
2018-03-14T13:05:55.486Z,17.35
2018-03-14T13:08:23.942Z,17.30
2018-03-14T13:10:52.454Z,17.22
2018-03-14T13:13:20.909Z,17.07
2018-03-14T13:15:49.401Z,17.30
2018-03-14T13:18:17.874Z,17.23
2018-03-14T13:20:46.362Z,17.06
2018-03-14T13:23:14.825Z,17.24
2018-03-14T13:25:43.345Z,17.21
2018-03-14T13:28:11.869Z,17.31
2018-03-14T13:30:40.347Z,17.23
2018-03-14T13:33:08.841Z,17.22
2018-03-14T13:35:37.306Z,17.20
2018-03-14T13:38:06.619Z,17.32
2018-03-14T13:40:35.129Z,17.45
2018-03-14T13:43:03.626Z,17.46
2018-03-14T13:45:32.142Z,17.35
2018-03-14T13:48:00.646Z,17.47
2018-03-14T13:50:29.158Z,17.43
2018-03-14T13:52:57.694Z,17.49
2018-03-14T13:55:26.201Z,17.35
2018-03-14T13:57:54.746Z,17.41
2018-03-14T14:00:23.249Z,17.39
2018-03-14T14:02:52.657Z,17.41
2018-03-14T14:05:21.164Z,17.30
2018-03-14T14:07:49.699Z,17.22
2018-03-14T14:10:18.154Z,17.37
2018-03-14T14:12:46.668Z,17.24
2018-03-14T14:15:15.172Z,17.38
2018-03-14T14:17:43.670Z,17.46
2018-03-14T14:20:12.203Z,17.52
2018-03-14T14:22:40.671Z,17.49
2018-03-14T14:25:09.177Z,17.57
2018-03-14T14:27:37.665Z,17.57
2018-03-14T14:30:06.148Z,17.60
2018-03-14T14:32:34.606Z,17.61
2018-03-14T14:35:03.157Z,17.65
2018-03-14T14:37:31.664Z,17.49
2018-03-14T14:40:00.178Z,17.68
2018-03-14T14:42:28.979Z,17.58
2018-03-14T14:44:57.553Z,17.41
2018-03-14T14:47:26.022Z,17.44
2018-03-14T14:49:54.540Z,17.49
2018-03-14T14:52:23.034Z,17.51
2018-03-14T14:54:51.510Z,17.54
2018-03-14T14:57:20.014Z,17.43
2018-03-14T14:59:48.499Z,17.38
2018-03-14T15:02:16.982Z,17.24
2018-03-14T15:04:45.437Z,17.24
2018-03-14T15:07:13.965Z,17.47
2018-03-14T15:09:42.474Z,17.51
2018-03-14T15:12:11.010Z,17.52
2018-03-14T15:14:39.466Z,17.59
2018-03-14T15:17:07.926Z,17.53
2018-03-14T15:19:36.430Z,17.40
2018-03-14T15:22:04.893Z,17.29
2018-03-14T15:24:33.379Z,17.25
2018-03-14T15:27:01.871Z,17.34
2018-03-14T15:29:30.330Z,17.18
2018-03-14T15:31:58.838Z,17.29
2018-03-14T15:34:27.396Z,17.24
2018-03-14T15:36:55.957Z,17.25
2018-03-14T15:39:24.422Z,17.13
2018-03-14T15:41:52.927Z,17.22
2018-03-14T15:44:21.432Z,17.12
2018-03-14T15:46:49.894Z,17.11
2018-03-14T15:49:18.351Z,16.92
2018-03-14T15:51:46.844Z,16.86
2018-03-14T15:54:15.299Z,16.77
2018-03-14T15:56:43.814Z,16.91
2018-03-14T15:59:12.279Z,16.71
2018-03-14T16:01:40.729Z,16.70
2018-03-14T16:04:09.214Z,16.60
2018-03-14T16:06:37.671Z,16.57
2018-03-14T16:09:06.230Z,16.45
2018-03-14T16:11:34.692Z,16.43
2018-03-14T16:14:03.213Z,16.52
2018-03-14T16:16:31.678Z,16.37
2018-03-14T16:19:00.133Z,16.37
2018-03-14T16:21:28.643Z,16.40
2018-03-14T16:23:57.129Z,16.39
2018-03-14T16:26:25.571Z,16.40
2018-03-14T16:28:54.067Z,16.45
2018-03-14T16:31:22.572Z,16.44
2018-03-14T16:33:51.018Z,16.45
2018-03-14T16:36:19.481Z,16.24
2018-03-14T16:38:47.972Z,16.31
2018-03-14T16:41:16.434Z,16.28
2018-03-14T16:43:44.926Z,16.31
2018-03-14T16:46:13.378Z,16.17
2018-03-14T16:48:41.857Z,16.24
2018-03-14T16:51:10.364Z,16.21
2018-03-14T16:53:38.813Z,16.21
2018-03-14T16:56:07.263Z,16.04
2018-03-14T16:58:35.746Z,16.12
2018-03-14T17:01:04.238Z,16.09
2018-03-14T17:03:32.714Z,16.05
2018-03-14T17:06:01.196Z,15.99
2018-03-14T17:08:29.703Z,15.94
2018-03-14T17:10:58.189Z,15.89
2018-03-14T17:13:26.708Z,15.82
2018-03-14T17:15:55.164Z,15.80
2018-03-14T17:18:23.659Z,15.74
2018-03-14T17:20:52.128Z,15.64
2018-03-14T17:23:20.610Z,15.59
2018-03-14T17:25:49.105Z,15.52
2018-03-14T17:28:17.590Z,15.40
2018-03-14T17:30:46.077Z,15.34
2018-03-14T17:33:14.571Z,15.28
2018-03-14T17:35:43.027Z,15.15
2018-03-14T17:38:11.558Z,15.10
2018-03-14T17:40:40.034Z,15.06
2018-03-14T17:43:08.550Z,14.90
2018-03-14T17:45:37.034Z,14.92
2018-03-14T17:48:05.510Z,14.87
2018-03-14T17:50:34.009Z,14.83
2018-03-14T17:53:02.504Z,14.86
2018-03-14T17:55:31.001Z,14.79
2018-03-14T17:57:59.468Z,14.74
2018-03-14T18:00:27.980Z,14.75
2018-03-14T18:02:56.480Z,14.60
2018-03-14T18:05:24.970Z,14.58
2018-03-14T18:07:53.482Z,14.63
2018-03-14T18:10:21.930Z,14.61
2018-03-14T18:12:50.423Z,14.48
2018-03-14T18:15:18.932Z,14.50
2018-03-14T18:17:47.403Z,14.51
2018-03-14T18:20:15.854Z,14.47
2018-03-14T18:22:44.370Z,14.53
2018-03-14T18:25:12.826Z,14.56
2018-03-14T18:27:41.318Z,14.52
2018-03-14T18:30:09.932Z,14.54
2018-03-14T18:32:38.432Z,14.57
2018-03-14T18:35:06.922Z,14.44
2018-03-14T18:37:35.414Z,14.52
2018-03-14T18:40:03.906Z,14.45
2018-03-14T18:42:32.403Z,14.46
2018-03-14T18:45:00.892Z,14.32
2018-03-14T18:47:29.358Z,14.38
2018-03-14T18:49:57.849Z,14.39
2018-03-14T18:52:26.298Z,14.29
2018-03-14T18:54:54.781Z,14.24
2018-03-14T18:57:23.280Z,14.28
2018-03-14T18:59:51.802Z,14.12
2018-03-14T19:02:20.258Z,14.02
2018-03-14T19:04:48.761Z,13.93
2018-03-14T19:07:17.225Z,14.13
2018-03-14T19:09:45.772Z,14.04
2018-03-14T19:12:14.237Z,14.02
2018-03-14T19:14:42.690Z,14.00
2018-03-14T19:17:11.192Z,13.90
2018-03-14T19:19:39.745Z,13.88
2018-03-14T19:22:08.195Z,13.89
2018-03-14T19:24:36.660Z,13.91
2018-03-14T19:27:05.150Z,13.89
2018-03-14T19:29:33.607Z,13.89
2018-03-14T19:32:02.106Z,13.87
2018-03-14T19:34:30.606Z,13.66
2018-03-14T19:36:59.095Z,13.55
2018-03-14T19:39:27.541Z,13.65
2018-03-14T19:41:56.077Z,13.59
2018-03-14T19:44:24.586Z,13.53
2018-03-14T19:46:53.066Z,13.50
2018-03-14T19:49:21.518Z,13.52
2018-03-14T19:51:50.002Z,13.47
2018-03-14T19:54:18.445Z,13.44
2018-03-14T19:56:46.968Z,13.53
2018-03-14T19:59:15.432Z,13.58
2018-03-14T20:01:43.960Z,13.57
2018-03-14T20:04:12.458Z,13.57
2018-03-14T20:06:40.928Z,13.59
2018-03-14T20:09:09.495Z,13.65
2018-03-14T20:11:37.930Z,13.69
2018-03-14T20:14:06.436Z,13.59
2018-03-14T20:16:34.889Z,13.70
2018-03-14T20:19:03.378Z,13.65
2018-03-14T20:21:31.878Z,13.58
2018-03-14T20:24:00.326Z,13.60
2018-03-14T20:26:28.821Z,13.58
2018-03-14T20:28:57.290Z,13.43
2018-03-14T20:31:25.759Z,13.45
2018-03-14T20:33:54.215Z,13.37
2018-03-14T20:36:22.703Z,13.41
2018-03-14T20:38:51.193Z,13.44
2018-03-14T20:41:19.700Z,13.43
2018-03-14T20:43:48.190Z,13.19
2018-03-14T20:46:16.647Z,13.31
2018-03-14T20:48:45.137Z,13.40
2018-03-14T20:51:13.586Z,13.37
2018-03-14T20:53:42.048Z,13.34
2018-03-14T20:56:10.558Z,13.30
2018-03-14T20:58:39.014Z,13.19
2018-03-14T21:01:07.510Z,13.23
2018-03-14T21:03:36.002Z,13.17
2018-03-14T21:06:04.517Z,13.07
2018-03-14T21:08:32.999Z,13.03
2018-03-14T21:11:01.457Z,13.04
2018-03-14T21:13:29.958Z,13.00
2018-03-14T21:15:58.469Z,12.95
2018-03-14T21:18:26.919Z,12.93
2018-03-14T21:20:55.370Z,12.92
2018-03-14T21:23:23.918Z,12.97
2018-03-14T21:25:52.416Z,12.89
2018-03-14T21:28:20.908Z,12.83
2018-03-14T21:30:49.358Z,12.84
2018-03-14T21:33:17.852Z,12.81
2018-03-14T21:35:46.298Z,12.83
2018-03-14T21:38:15.180Z,12.83
2018-03-14T21:40:43.682Z,12.81
2018-03-14T21:43:12.208Z,12.68
2018-03-14T21:45:40.693Z,12.78
2018-03-14T21:48:09.186Z,12.78
2018-03-14T21:50:37.635Z,12.78
2018-03-14T21:53:06.154Z,12.89
2018-03-14T21:55:40.655Z,12.82
2018-03-14T21:58:09.028Z,12.84
2018-03-14T22:00:37.511Z,12.83
2018-03-14T22:03:05.966Z,12.77
2018-03-14T22:05:34.426Z,12.82
2018-03-14T22:08:02.921Z,12.80
2018-03-14T22:10:31.414Z,12.77
2018-03-14T22:12:59.867Z,12.71
2018-03-14T22:15:28.402Z,12.76
2018-03-14T22:17:56.911Z,12.82
2018-03-14T22:20:25.410Z,12.82
2018-03-14T22:22:53.901Z,12.68
2018-03-14T22:25:22.383Z,12.86
2018-03-14T22:27:50.928Z,12.89
2018-03-14T22:30:19.400Z,12.95
2018-03-14T22:32:47.949Z,12.91
2018-03-14T22:35:16.425Z,12.97
2018-03-14T22:37:44.909Z,12.94
2018-03-14T22:40:13.362Z,12.93
2018-03-14T22:42:41.871Z,12.92
2018-03-14T22:45:10.374Z,13.01
2018-03-14T22:47:38.822Z,12.92
2018-03-14T22:50:07.334Z,12.99
2018-03-14T22:52:35.791Z,12.92
2018-03-14T22:55:04.339Z,12.98
2018-03-14T22:57:32.826Z,12.93
2018-03-14T23:00:01.274Z,12.96
2018-03-14T23:02:29.810Z,12.87
2018-03-14T23:04:58.258Z,12.82
2018-03-14T23:07:26.796Z,12.85
2018-03-14T23:09:55.250Z,12.89
2018-03-14T23:12:23.733Z,12.89
2018-03-14T23:14:52.184Z,12.88
2018-03-14T23:17:20.670Z,12.77
2018-03-14T23:19:49.121Z,12.76
2018-03-14T23:22:17.610Z,12.76
2018-03-14T23:24:46.067Z,12.67
2018-03-14T23:27:14.523Z,12.54
2018-03-14T23:29:43.018Z,12.60
2018-03-14T23:32:11.466Z,12.53
2018-03-14T23:34:39.955Z,12.45
2018-03-14T23:37:08.438Z,12.34
2018-03-14T23:39:36.926Z,12.42
2018-03-14T23:42:05.419Z,12.44
2018-03-14T23:44:33.869Z,12.23
2018-03-14T23:47:02.353Z,12.35
2018-03-14T23:49:30.878Z,12.22
2018-03-14T23:51:59.322Z,12.25
2018-03-14T23:54:27.802Z,12.26
2018-03-14T23:56:56.295Z,12.19
2018-03-14T23:59:24.813Z,12.20
